createdAt,value
2023-02-15T00:00:27.731Z,21.76
2023-02-15T00:01:27.710Z,21.76
2023-02-15T00:02:27.693Z,21.75
2023-02-15T00:03:27.726Z,21.75
2023-02-15T00:04:27.652Z,21.75
2023-02-15T00:05:27.627Z,21.75
2023-02-15T00:06:27.620Z,21.75
2023-02-15T00:07:27.609Z,21.75
2023-02-15T00:08:27.589Z,21.75
2023-02-15T00:09:27.576Z,21.75
2023-02-15T00:10:27.545Z,21.75
2023-02-15T00:11:27.498Z,21.75
2023-02-15T00:12:27.471Z,21.74
2023-02-15T00:13:27.454Z,21.75
2023-02-15T00:14:27.433Z,21.75
2023-02-15T00:15:27.405Z,21.75
2023-02-15T00:16:27.393Z,21.75
2023-02-15T00:17:27.364Z,21.75
2023-02-15T00:18:27.336Z,21.74
2023-02-15T00:19:27.312Z,21.74
2023-02-15T00:20:27.288Z,21.74
2023-02-15T00:21:27.243Z,21.75
2023-02-15T00:22:27.274Z,21.75
2023-02-15T00:23:27.185Z,21.74
2023-02-15T00:24:27.152Z,21.74
2023-02-15T00:25:27.119Z,21.73
2023-02-15T00:26:27.110Z,21.73
2023-02-15T00:27:27.070Z,21.73
2023-02-15T00:28:27.040Z,21.73
2023-02-15T00:29:27.021Z,21.72
2023-02-15T00:30:27.019Z,21.71
2023-02-15T00:31:27.078Z,21.72
2023-02-15T00:32:26.929Z,21.72
2023-02-15T00:33:26.896Z,21.73
2023-02-15T00:34:26.883Z,21.73
2023-02-15T00:35:26.843Z,21.73
2023-02-15T00:36:26.829Z,21.73
2023-02-15T00:37:26.813Z,21.72
2023-02-15T00:38:26.779Z,21.73
2023-02-15T00:39:26.754Z,21.73
2023-02-15T00:40:26.740Z,21.72
2023-02-15T00:41:26.702Z,21.72
2023-02-15T00:42:26.663Z,21.72
2023-02-15T00:43:26.636Z,21.71
2023-02-15T00:44:26.617Z,21.72
2023-02-15T00:45:26.588Z,21.71
2023-02-15T00:46:26.560Z,21.71
2023-02-15T00:47:26.538Z,21.71
2023-02-15T00:48:26.503Z,21.71
2023-02-15T00:49:26.490Z,21.71
2023-02-15T00:50:26.465Z,21.72
2023-02-15T00:51:26.433Z,21.72
2023-02-15T00:52:26.401Z,21.72
2023-02-15T00:53:26.381Z,21.71
2023-02-15T00:54:26.346Z,21.71
2023-02-15T00:55:26.330Z,21.72
2023-02-15T00:56:26.293Z,21.72
2023-02-15T00:57:26.258Z,21.72
2023-02-15T00:58:26.208Z,21.71
2023-02-15T00:59:26.175Z,21.71
2023-02-15T01:00:26.148Z,21.71
2023-02-15T01:01:26.128Z,21.71
2023-02-15T01:02:26.069Z,21.71
2023-02-15T01:03:26.043Z,21.71
2023-02-15T01:04:26.031Z,21.71
2023-02-15T01:05:25.988Z,21.70
2023-02-15T01:06:25.948Z,21.72
2023-02-15T01:07:25.906Z,21.72
2023-02-15T01:08:25.870Z,21.72
2023-02-15T01:09:25.841Z,21.71
2023-02-15T01:10:25.806Z,21.71
2023-02-15T01:11:25.798Z,21.71
2023-02-15T01:12:25.742Z,21.71
2023-02-15T01:13:25.716Z,21.70
2023-02-15T01:14:25.663Z,21.71
2023-02-15T01:15:25.628Z,21.70
2023-02-15T01:16:25.711Z,21.69
2023-02-15T01:17:25.693Z,21.69
2023-02-15T01:18:25.515Z,21.70
2023-02-15T01:19:25.496Z,21.70
2023-02-15T01:20:25.456Z,21.70
2023-02-15T01:21:25.422Z,21.70
2023-02-15T01:22:25.395Z,21.69
2023-02-15T01:23:25.360Z,21.69
2023-02-15T01:24:25.307Z,21.69
2023-02-15T01:25:25.287Z,21.69
2023-02-15T01:26:25.265Z,21.68
2023-02-15T01:27:25.220Z,21.68
2023-02-15T01:28:25.192Z,21.69
2023-02-15T01:29:25.160Z,21.68
2023-02-15T01:30:25.259Z,21.68
2023-02-15T01:31:25.177Z,21.68
2023-02-15T01:32:25.086Z,21.68
2023-02-15T01:33:25.061Z,21.68
2023-02-15T01:34:25.047Z,21.68
2023-02-15T01:35:25.008Z,21.68
2023-02-15T01:36:24.992Z,21.69
2023-02-15T01:37:24.961Z,21.68
2023-02-15T01:38:24.937Z,21.68
2023-02-15T01:39:24.909Z,21.67
2023-02-15T01:40:24.895Z,21.67
2023-02-15T01:41:24.973Z,21.67
2023-02-15T01:42:24.835Z,21.67
2023-02-15T01:43:24.895Z,21.67
2023-02-15T01:44:24.807Z,21.67
2023-02-15T01:45:24.784Z,21.67
2023-02-15T01:46:24.798Z,21.67
2023-02-15T01:47:24.712Z,21.67
2023-02-15T01:48:24.700Z,21.67
2023-02-15T01:49:24.669Z,21.67
2023-02-15T01:50:24.645Z,21.67
2023-02-15T01:51:24.619Z,21.67
2023-02-15T01:52:24.599Z,21.69
2023-02-15T01:53:24.565Z,21.68
2023-02-15T01:54:24.545Z,21.68
2023-02-15T01:55:24.509Z,21.67
2023-02-15T01:56:24.499Z,21.68
2023-02-15T01:57:24.496Z,21.66
2023-02-15T01:58:24.436Z,21.67
2023-02-15T01:59:24.405Z,21.67
2023-02-15T02:00:24.371Z,21.66
2023-02-15T02:01:24.486Z,21.66
2023-02-15T02:02:24.372Z,21.65
2023-02-15T02:03:24.275Z,21.66
2023-02-15T02:04:24.261Z,21.66
2023-02-15T02:05:24.221Z,21.66
2023-02-15T02:06:26.019Z,21.65
2023-02-15T02:07:24.177Z,21.65
2023-02-15T02:08:24.153Z,21.65
2023-02-15T02:09:24.125Z,21.65
2023-02-15T02:10:24.108Z,21.65
2023-02-15T02:11:24.089Z,21.66
2023-02-15T02:12:24.049Z,21.65
2023-02-15T02:13:24.018Z,21.65
2023-02-15T02:14:23.990Z,21.64
2023-02-15T02:15:23.964Z,21.64
2023-02-15T02:16:23.973Z,21.65
2023-02-15T02:17:23.905Z,21.64
2023-02-15T02:18:23.887Z,21.64
2023-02-15T02:19:23.861Z,21.63
2023-02-15T02:20:23.833Z,21.64
2023-02-15T02:21:23.800Z,21.63
2023-02-15T02:22:23.793Z,21.63
2023-02-15T02:23:23.760Z,21.64
2023-02-15T02:24:23.730Z,21.63
2023-02-15T02:25:23.707Z,21.63
2023-02-15T02:26:23.674Z,21.63
2023-02-15T02:27:23.643Z,21.64
2023-02-15T02:28:23.617Z,21.64
2023-02-15T02:29:23.600Z,21.63
2023-02-15T02:30:23.659Z,21.63
2023-02-15T02:31:23.605Z,21.63
2023-02-15T02:32:23.508Z,21.63
2023-02-15T02:33:23.474Z,21.63
2023-02-15T02:34:23.471Z,21.63
2023-02-15T02:35:23.442Z,21.63
2023-02-15T02:36:23.421Z,21.62
2023-02-15T02:37:23.377Z,21.64
2023-02-15T02:38:23.360Z,21.62
2023-02-15T02:39:23.326Z,21.63
2023-02-15T02:40:23.317Z,21.62
2023-02-15T02:41:23.279Z,21.62
2023-02-15T02:42:23.251Z,21.62
2023-02-15T02:43:23.218Z,21.62
2023-02-15T02:44:23.214Z,21.62
2023-02-15T02:45:23.184Z,21.62
2023-02-15T02:46:23.172Z,21.61
2023-02-15T02:47:23.151Z,21.62
2023-02-15T02:48:23.115Z,21.62
2023-02-15T02:49:23.089Z,21.63
2023-02-15T02:50:23.073Z,21.62
2023-02-15T02:51:23.052Z,21.62
2023-02-15T02:52:23.034Z,21.62
2023-02-15T02:53:23.011Z,21.62
2023-02-15T02:54:22.982Z,21.62
2023-02-15T02:55:22.965Z,21.62
2023-02-15T02:56:22.931Z,21.62
2023-02-15T02:57:22.900Z,21.62
2023-02-15T02:58:22.874Z,21.61
2023-02-15T02:59:22.859Z,21.61
2023-02-15T03:00:22.833Z,21.61
2023-02-15T03:01:22.837Z,21.61
2023-02-15T03:02:22.784Z,21.61
2023-02-15T03:03:22.740Z,21.61
2023-02-15T03:04:22.713Z,21.61
2023-02-15T03:05:22.689Z,21.61
2023-02-15T03:06:22.672Z,21.61
2023-02-15T03:07:22.649Z,21.61
2023-02-15T03:08:22.695Z,21.61
2023-02-15T03:09:22.582Z,21.61
2023-02-15T03:10:22.583Z,21.60
2023-02-15T03:11:22.513Z,21.61
2023-02-15T03:12:22.482Z,21.61
2023-02-15T03:13:22.462Z,21.61
2023-02-15T03:14:22.447Z,21.60
2023-02-15T03:15:22.428Z,21.60
2023-02-15T03:16:22.454Z,21.60
2023-02-15T03:17:22.364Z,21.60
2023-02-15T03:18:22.352Z,21.59
2023-02-15T03:19:22.336Z,21.60
2023-02-15T03:20:22.289Z,21.60
2023-02-15T03:21:22.273Z,21.60
2023-02-15T03:22:22.248Z,21.60
2023-02-15T03:23:22.225Z,21.60
2023-02-15T03:24:22.193Z,21.60
2023-02-15T03:25:22.170Z,21.60
2023-02-15T03:26:22.146Z,21.60
2023-02-15T03:27:22.105Z,21.60
2023-02-15T03:28:22.099Z,21.60
2023-02-15T03:29:22.064Z,21.59
2023-02-15T03:30:22.087Z,21.59
2023-02-15T03:31:22.087Z,21.59
2023-02-15T03:32:22.081Z,21.59
2023-02-15T03:33:21.962Z,21.59
2023-02-15T03:34:21.925Z,21.59
2023-02-15T03:35:21.899Z,21.59
2023-02-15T03:36:21.858Z,21.59
2023-02-15T03:37:21.832Z,21.59
2023-02-15T03:38:21.794Z,21.59
2023-02-15T03:39:21.761Z,21.60
2023-02-15T03:40:21.741Z,21.60
2023-02-15T03:41:21.692Z,21.60
2023-02-15T03:42:21.659Z,21.60
2023-02-15T03:43:21.635Z,21.60
2023-02-15T03:44:21.605Z,21.59
2023-02-15T03:45:21.560Z,21.60
2023-02-15T03:46:21.575Z,21.60
2023-02-15T03:47:21.481Z,21.61
2023-02-15T03:48:21.461Z,21.60
2023-02-15T03:49:21.412Z,21.60
2023-02-15T03:50:21.381Z,21.59
2023-02-15T03:51:21.341Z,21.60
2023-02-15T03:52:21.313Z,21.60
2023-02-15T03:53:22.061Z,21.63
2023-02-15T03:54:21.250Z,21.62
2023-02-15T05:22:18.461Z,21.52
2023-02-15T05:23:18.424Z,21.52
2023-02-15T05:24:18.389Z,21.52
2023-02-15T05:25:18.364Z,21.51
2023-02-15T05:26:18.326Z,21.51
2023-02-15T05:27:18.297Z,21.51
2023-02-15T05:28:18.277Z,21.51
2023-02-15T05:29:18.237Z,21.51
2023-02-15T05:30:18.317Z,21.51
2023-02-15T05:31:18.470Z,21.52
2023-02-15T05:32:18.241Z,21.52
2023-02-15T05:33:18.124Z,21.52
2023-02-15T05:34:18.098Z,21.52
2023-02-15T05:35:18.071Z,21.52
2023-02-15T05:36:18.057Z,21.52
2023-02-15T05:37:18.030Z,21.51
2023-02-15T05:38:18.000Z,21.51
2023-02-15T05:39:17.969Z,21.51
2023-02-15T05:40:17.944Z,21.51
2023-02-15T05:41:17.911Z,21.51
2023-02-15T05:42:17.910Z,21.51
2023-02-15T05:43:17.868Z,21.51
2023-02-15T05:44:17.844Z,21.50
2023-02-15T05:45:17.818Z,21.51
2023-02-15T05:46:17.816Z,21.51
2023-02-15T05:47:17.753Z,21.51
2023-02-15T05:48:17.714Z,21.51
2023-02-15T05:49:17.690Z,21.51
2023-02-15T05:50:17.705Z,21.51
2023-02-15T05:51:17.649Z,21.52
2023-02-15T05:52:17.616Z,21.52
2023-02-15T05:53:17.596Z,21.51
2023-02-15T05:54:17.572Z,21.51
2023-02-15T05:55:17.554Z,21.51
2023-02-15T05:56:17.520Z,21.50
2023-02-15T05:57:17.494Z,21.51
2023-02-15T05:58:17.478Z,21.51
2023-02-15T05:59:17.463Z,21.51
2023-02-15T06:00:17.421Z,21.50
2023-02-15T06:01:17.405Z,21.50
2023-02-15T06:02:17.426Z,21.51
2023-02-15T06:03:17.395Z,21.52
2023-02-15T06:04:17.336Z,21.51
2023-02-15T06:05:17.313Z,21.51
2023-02-15T06:06:17.287Z,21.51
2023-02-15T06:07:17.267Z,21.51
2023-02-15T06:08:17.232Z,21.51
2023-02-15T06:09:17.224Z,21.51
2023-02-15T06:10:17.191Z,21.52
2023-02-15T06:11:17.171Z,21.51
2023-02-15T06:12:17.136Z,21.51
2023-02-15T06:13:17.127Z,21.50
2023-02-15T06:14:17.097Z,21.50
2023-02-15T06:15:17.091Z,21.51
2023-02-15T06:16:17.206Z,21.50
2023-02-15T06:17:17.044Z,21.49
2023-02-15T06:18:17.013Z,21.50
2023-02-15T06:19:16.988Z,21.50
2023-02-15T06:20:16.975Z,21.51
2023-02-15T06:21:16.955Z,21.50
2023-02-15T06:22:16.942Z,21.50
2023-02-15T06:23:16.932Z,21.51
2023-02-15T06:24:16.903Z,21.50
2023-02-15T06:25:16.886Z,21.50
2023-02-15T06:26:16.874Z,21.50
2023-02-15T06:27:16.850Z,21.50
2023-02-15T06:28:16.824Z,21.50
2023-02-15T06:29:16.811Z,21.50
2023-02-15T06:30:16.803Z,21.50
2023-02-15T06:31:16.898Z,21.49
2023-02-15T06:32:16.727Z,21.50
2023-02-15T06:33:16.718Z,21.50
2023-02-15T06:34:16.677Z,21.49
2023-02-15T06:35:16.655Z,21.50
2023-02-15T06:36:16.622Z,21.50
2023-02-15T06:37:16.603Z,21.50
2023-02-15T06:38:16.549Z,21.51
2023-02-15T06:39:16.533Z,21.50
2023-02-15T06:40:16.488Z,21.50
2023-02-15T06:41:16.457Z,21.50
2023-02-15T06:42:16.427Z,21.50
2023-02-15T06:43:16.393Z,21.49
2023-02-15T06:44:16.357Z,21.50
2023-02-15T06:45:16.341Z,21.50
2023-02-15T06:46:16.372Z,21.49
2023-02-15T06:47:16.279Z,21.49
2023-02-15T06:48:16.277Z,21.49
2023-02-15T06:49:16.229Z,21.50
2023-02-15T06:50:16.239Z,21.51
2023-02-15T06:51:16.182Z,21.50
2023-02-15T06:52:16.181Z,21.50
2023-02-15T06:53:16.129Z,21.50
2023-02-15T06:54:16.103Z,21.49
2023-02-15T06:55:16.070Z,21.50
2023-02-15T06:56:16.034Z,21.50
2023-02-15T06:57:16.021Z,21.51
2023-02-15T06:58:15.987Z,21.50
2023-02-15T06:59:15.955Z,21.50
2023-02-15T07:00:15.919Z,21.50
2023-02-15T07:01:15.942Z,21.51
2023-02-15T07:02:15.879Z,21.51
2023-02-15T07:03:15.866Z,21.50
2023-02-15T07:04:15.836Z,21.50
2023-02-15T07:05:15.904Z,21.51
2023-02-15T07:06:15.787Z,21.51
2023-02-15T07:07:15.794Z,21.52
2023-02-15T07:08:15.733Z,21.51
2023-02-15T07:09:15.723Z,21.51
2023-02-15T07:10:15.726Z,21.51
2023-02-15T07:11:15.675Z,21.51
2023-02-15T07:12:15.656Z,21.51
2023-02-15T07:13:15.643Z,21.51
2023-02-15T07:14:15.610Z,21.51
2023-02-15T07:15:15.654Z,21.51
2023-02-15T07:16:15.616Z,21.50
2023-02-15T07:17:34.998Z,21.51
2023-02-15T07:18:16.534Z,21.51
2023-02-15T07:19:15.528Z,21.51
2023-02-15T07:20:15.467Z,21.51
2023-02-15T07:21:15.463Z,21.50
2023-02-15T07:22:15.433Z,21.50
2023-02-15T07:23:15.402Z,21.52
2023-02-15T07:24:15.393Z,21.52
2023-02-15T07:25:15.378Z,21.51
2023-02-15T07:26:15.359Z,21.51
2023-02-15T07:27:15.327Z,21.50
2023-02-15T07:28:15.306Z,21.51
2023-02-15T07:29:15.280Z,21.51
2023-02-15T07:30:15.348Z,21.50
2023-02-15T07:31:15.263Z,21.51
2023-02-15T07:32:15.244Z,21.50
2023-02-15T07:33:15.191Z,21.50
2023-02-15T07:34:15.166Z,21.50
2023-02-15T07:35:15.148Z,21.51
2023-02-15T07:36:15.116Z,21.51
2023-02-15T07:37:15.143Z,21.51
2023-02-15T07:38:15.066Z,21.50
2023-02-15T07:39:15.043Z,21.51
2023-02-15T07:40:15.026Z,21.51
2023-02-15T07:41:15.005Z,21.51
2023-02-15T07:42:14.972Z,21.51
2023-02-15T07:43:14.940Z,21.51
2023-02-15T07:44:14.909Z,21.50
2023-02-15T07:45:14.879Z,21.50
2023-02-15T07:46:14.916Z,21.51
2023-02-15T07:47:14.933Z,21.51
2023-02-15T07:48:14.792Z,21.51
2023-02-15T07:49:14.765Z,21.51
2023-02-15T07:50:14.738Z,21.51
2023-02-15T07:51:14.706Z,21.52
2023-02-15T07:52:14.674Z,21.53
2023-02-15T07:53:14.663Z,21.55
2023-02-15T07:54:14.673Z,21.55
2023-02-15T07:55:14.590Z,21.56
2023-02-15T07:56:14.542Z,21.56
2023-02-15T07:57:14.516Z,21.56
2023-02-15T07:58:14.517Z,21.58
2023-02-15T07:59:14.486Z,21.59
2023-02-15T08:00:14.454Z,21.59
2023-02-15T08:01:14.426Z,21.60
2023-02-15T08:02:15.318Z,21.61
2023-02-15T08:03:14.609Z,21.62
2023-02-15T08:04:14.355Z,21.62
2023-02-15T08:05:14.345Z,21.63
2023-02-15T08:06:14.324Z,21.63
2023-02-15T08:07:14.296Z,21.64
2023-02-15T08:08:14.264Z,21.65
2023-02-15T08:09:14.227Z,21.66
2023-02-15T08:10:14.208Z,21.67
2023-02-15T08:11:14.165Z,21.68
2023-02-15T08:12:14.132Z,21.68
2023-02-15T08:13:14.129Z,21.68
2023-02-15T08:14:14.103Z,21.70
2023-02-15T08:15:14.092Z,21.70
2023-02-15T08:16:14.410Z,21.71
2023-02-15T08:17:14.145Z,21.71
2023-02-15T08:18:14.034Z,21.71
2023-02-15T08:19:13.978Z,21.72
2023-02-15T08:20:13.961Z,21.73
2023-02-15T08:21:13.939Z,21.75
2023-02-15T08:22:14.016Z,21.76
2023-02-15T08:23:13.886Z,21.78
2023-02-15T08:24:13.854Z,21.81
2023-02-15T08:25:13.881Z,21.83
2023-02-15T08:26:13.788Z,21.85
2023-02-15T08:27:13.768Z,21.86
2023-02-15T08:28:13.734Z,21.87
2023-02-15T08:29:13.704Z,21.87
2023-02-15T08:30:13.712Z,21.88
2023-02-15T08:31:13.796Z,21.88
2023-02-15T08:32:13.646Z,21.88
2023-02-15T08:33:13.609Z,21.88
2023-02-15T08:34:13.549Z,21.87
2023-02-15T08:35:13.575Z,21.89
2023-02-15T08:36:13.498Z,21.89
2023-02-15T08:37:13.460Z,21.91
2023-02-15T08:38:13.430Z,21.91
2023-02-15T08:39:13.408Z,21.91
2023-02-15T08:40:13.387Z,21.91
2023-02-15T08:41:13.362Z,21.91
2023-02-15T08:42:13.335Z,21.92
2023-02-15T08:43:13.325Z,21.92
2023-02-15T08:44:13.291Z,21.92
2023-02-15T08:45:13.269Z,21.93
2023-02-15T08:46:13.247Z,21.93
2023-02-15T08:47:13.211Z,21.94
2023-02-15T08:48:13.171Z,21.96
2023-02-15T08:49:13.179Z,21.97
2023-02-15T08:50:13.153Z,21.97
2023-02-15T08:51:13.108Z,21.99
2023-02-15T08:52:13.071Z,21.99
2023-02-15T08:53:13.045Z,22.01
2023-02-15T08:54:13.038Z,22.02
2023-02-15T08:55:12.997Z,22.04
2023-02-15T08:56:12.972Z,22.05
2023-02-15T08:57:12.933Z,22.06
2023-02-15T08:58:12.897Z,22.07
2023-02-15T08:59:12.895Z,22.08
2023-02-15T09:00:12.838Z,22.10
2023-02-15T09:01:12.872Z,22.11
2023-02-15T09:02:12.841Z,22.13
2023-02-15T09:03:12.740Z,22.13
2023-02-15T09:04:12.747Z,22.13
2023-02-15T09:05:12.686Z,22.15
2023-02-15T09:06:12.646Z,22.16
2023-02-15T09:07:12.614Z,22.15
2023-02-15T09:08:12.578Z,22.17
2023-02-15T09:09:12.554Z,22.17
2023-02-15T09:10:12.519Z,22.17
2023-02-15T09:11:12.496Z,22.18
2023-02-15T09:12:12.481Z,22.20
2023-02-15T09:13:12.420Z,22.20
2023-02-15T09:14:12.413Z,22.21
2023-02-15T09:15:12.352Z,22.22
2023-02-15T09:16:12.380Z,22.23
2023-02-15T09:17:14.851Z,22.23
2023-02-15T09:18:12.255Z,22.23
2023-02-15T09:19:12.232Z,22.24
2023-02-15T09:20:12.202Z,22.24
2023-02-15T09:21:12.189Z,22.26
2023-02-15T09:22:12.149Z,22.24
2023-02-15T09:23:25.461Z,22.26
2023-02-15T09:24:13.109Z,22.25
2023-02-15T09:25:12.064Z,22.27
2023-02-15T09:26:12.022Z,22.28
2023-02-15T09:27:11.998Z,22.28
2023-02-15T09:28:11.959Z,22.29
2023-02-15T09:29:11.958Z,22.29
2023-02-15T09:30:11.970Z,22.30
2023-02-15T09:31:11.937Z,22.31
2023-02-15T09:32:11.940Z,22.31
2023-02-15T09:33:11.837Z,22.31
2023-02-15T09:34:11.799Z,22.31
2023-02-15T09:35:11.789Z,22.33
2023-02-15T09:36:11.766Z,22.33
2023-02-15T09:37:11.750Z,22.34
2023-02-15T09:38:11.702Z,22.35
2023-02-15T09:39:11.689Z,22.37
2023-02-15T09:40:11.640Z,22.38
2023-02-15T09:41:11.617Z,22.39
2023-02-15T09:42:11.573Z,22.40
2023-02-15T09:43:11.543Z,22.40
2023-02-15T09:44:11.506Z,22.40
2023-02-15T09:45:11.480Z,22.42
2023-02-15T09:46:11.461Z,22.41
2023-02-15T09:47:11.406Z,22.40
2023-02-15T09:48:11.374Z,22.42
2023-02-15T09:49:11.342Z,22.42
2023-02-15T09:50:11.308Z,22.44
2023-02-15T09:51:11.281Z,22.45
2023-02-15T09:52:11.253Z,22.45
2023-02-15T13:18:54.955Z,22.82
2023-02-15T13:19:54.956Z,22.83
2023-02-15T13:20:54.936Z,22.83
2023-02-15T13:21:54.937Z,22.83
2023-02-15T13:22:54.912Z,22.84
2023-02-15T13:23:54.926Z,22.84
2023-02-15T13:24:54.898Z,22.85
2023-02-15T13:25:54.878Z,22.86
2023-02-15T13:27:01.011Z,22.87
2023-02-15T13:27:55.860Z,22.87
2023-02-15T13:28:54.864Z,22.88
2023-02-15T13:29:54.862Z,22.89
2023-02-15T13:30:54.880Z,22.90
2023-02-15T13:31:54.913Z,22.91
2023-02-15T13:32:54.809Z,22.91
2023-02-15T13:33:54.805Z,22.93
2023-02-15T13:34:54.805Z,22.94
2023-02-15T13:35:54.785Z,22.95
2023-02-15T13:36:54.777Z,22.98
2023-02-15T13:37:54.761Z,23.00
2023-02-15T13:38:54.766Z,23.02
2023-02-15T13:39:54.745Z,23.05
2023-02-15T13:40:54.732Z,23.08
2023-02-15T13:41:54.713Z,23.11
2023-02-15T13:42:54.710Z,23.14
2023-02-15T13:43:54.684Z,23.17
2023-02-15T13:44:54.673Z,23.20
2023-02-15T13:45:54.658Z,23.24
2023-02-15T13:46:54.661Z,23.27
2023-02-15T13:47:54.641Z,23.31
2023-02-15T13:48:54.652Z,23.34
2023-02-15T13:49:54.610Z,23.38
2023-02-15T13:50:54.592Z,23.41
2023-02-15T13:51:54.568Z,23.45
2023-02-15T13:52:54.568Z,23.49
2023-02-15T13:53:54.531Z,23.53
2023-02-15T13:54:54.536Z,23.57
2023-02-15T13:55:54.498Z,23.61
2023-02-15T13:56:54.487Z,23.64
2023-02-15T13:57:54.465Z,23.67
2023-02-15T13:58:54.455Z,23.71
2023-02-15T13:59:54.753Z,23.75
2023-02-15T14:00:54.485Z,23.78
2023-02-15T14:01:54.406Z,23.81
2023-02-15T14:02:54.376Z,23.83
2023-02-15T14:03:54.429Z,23.87
2023-02-15T14:04:54.343Z,23.90
2023-02-15T14:05:54.314Z,23.93
2023-02-15T14:06:54.315Z,23.95
2023-02-15T14:07:54.266Z,23.99
2023-02-15T14:08:54.246Z,24.00
2023-02-15T14:09:54.221Z,24.04
2023-02-15T14:10:54.214Z,24.07
2023-02-15T14:11:54.180Z,24.09
2023-02-15T14:12:54.160Z,24.12
2023-02-15T14:13:54.152Z,24.12
2023-02-15T14:14:54.132Z,24.14
2023-02-15T14:15:54.119Z,24.15
2023-02-15T14:17:06.015Z,24.16
2023-02-15T14:18:54.082Z,24.15
2023-02-15T14:19:54.060Z,24.16
2023-02-15T14:20:54.056Z,24.15
2023-02-15T14:21:54.050Z,24.15
2023-02-15T14:22:54.036Z,24.16
2023-02-15T14:23:54.053Z,24.14
2023-02-15T14:24:54.024Z,24.14
2023-02-15T14:25:53.996Z,24.14
2023-02-15T14:26:54.006Z,24.14
2023-02-15T14:27:53.963Z,24.13
2023-02-15T14:28:53.978Z,24.14
2023-02-15T14:29:53.971Z,24.13
2023-02-15T14:30:54.092Z,24.14
2023-02-15T14:31:53.989Z,24.13
2023-02-15T14:32:53.874Z,24.12
2023-02-15T14:33:53.865Z,24.11
2023-02-15T14:34:53.859Z,24.11
2023-02-15T14:35:53.834Z,24.09
2023-02-15T14:36:53.832Z,24.06
2023-02-15T14:37:53.805Z,24.07
2023-02-15T14:38:53.804Z,24.08
2023-02-15T14:39:53.771Z,24.10
2023-02-15T14:40:53.765Z,24.10
2023-02-15T14:41:53.734Z,24.13
2023-02-15T14:42:53.729Z,24.14
2023-02-15T14:43:53.708Z,24.15
2023-02-15T14:44:53.692Z,24.17
2023-02-15T14:45:53.694Z,24.17
2023-02-15T14:46:53.666Z,24.19
2023-02-15T14:47:53.647Z,24.18
2023-02-15T14:48:53.657Z,24.16
2023-02-15T14:49:53.630Z,24.11
2023-02-15T14:50:53.622Z,24.08
2023-02-15T14:51:53.591Z,24.05
2023-02-15T14:52:53.587Z,24.05
2023-02-15T14:53:53.556Z,24.04
2023-02-15T14:54:53.541Z,24.01
2023-02-15T14:55:53.518Z,23.96
2023-02-15T14:56:53.502Z,23.92
2023-02-15T14:57:53.495Z,23.90
2023-02-15T14:58:53.501Z,23.86
2023-02-15T14:59:53.485Z,23.84
2023-02-15T15:00:53.491Z,23.82
2023-02-15T15:01:53.434Z,23.80
2023-02-15T15:02:53.418Z,23.79
2023-02-15T15:03:53.412Z,23.78
2023-02-15T15:04:53.412Z,23.77
2023-02-15T15:05:53.401Z,23.76
2023-02-15T15:06:53.386Z,23.75
2023-02-15T15:07:53.383Z,23.75
2023-02-15T15:08:53.377Z,23.73
2023-02-15T15:09:53.368Z,23.73
2023-02-15T15:10:53.367Z,23.72
2023-02-15T15:11:53.352Z,23.71
2023-02-15T15:12:53.376Z,23.70
2023-02-15T15:13:53.331Z,23.69
2023-02-15T15:14:53.333Z,23.69
2023-02-15T15:15:53.353Z,23.69
2023-02-15T15:16:53.320Z,23.67
2023-02-15T15:17:53.257Z,23.66
2023-02-15T15:18:53.239Z,23.65
2023-02-15T15:19:53.220Z,23.65
2023-02-15T15:20:53.205Z,23.64
2023-02-15T15:21:53.202Z,23.63
2023-02-15T15:22:53.163Z,23.62
2023-02-15T15:23:53.140Z,23.60
2023-02-15T15:24:53.131Z,23.60
2023-02-15T15:25:53.204Z,23.59
2023-02-15T15:26:53.065Z,23.58
2023-02-15T15:27:53.069Z,23.58
2023-02-15T15:28:53.032Z,23.57
2023-02-15T15:29:53.134Z,23.56
2023-02-15T15:30:53.101Z,23.55
2023-02-15T15:31:53.075Z,23.53
2023-02-15T15:32:52.945Z,23.52
2023-02-15T15:33:52.935Z,23.52
2023-02-15T15:34:52.904Z,23.51
2023-02-15T15:35:52.879Z,23.51
2023-02-15T15:36:52.937Z,23.49
2023-02-15T15:37:52.839Z,23.48
2023-02-15T15:38:52.840Z,23.47
2023-02-15T15:39:52.808Z,23.47
2023-02-15T15:40:52.793Z,23.46
2023-02-15T15:41:52.776Z,23.45
2023-02-15T15:42:52.754Z,23.44
2023-02-15T15:43:52.740Z,23.43
2023-02-15T15:44:52.716Z,23.42
2023-02-15T15:45:52.774Z,23.42
2023-02-15T15:46:52.706Z,23.41
2023-02-15T15:48:05.187Z,23.40
2023-02-15T15:48:53.678Z,23.39
2023-02-15T15:49:52.700Z,23.39
2023-02-15T15:50:52.657Z,23.37
2023-02-15T15:51:52.655Z,23.36
2023-02-15T15:52:52.652Z,23.35
2023-02-15T15:53:52.629Z,23.34
2023-02-15T15:54:52.638Z,23.35
2023-02-15T15:55:52.639Z,23.33
2023-02-15T15:56:52.665Z,23.33
2023-02-15T15:57:52.614Z,23.31
2023-02-15T15:58:52.603Z,23.31
2023-02-15T15:59:52.622Z,23.30
2023-02-15T16:00:52.597Z,23.30
2023-02-15T16:01:52.651Z,23.28
2023-02-15T16:02:52.687Z,23.29
2023-02-15T16:03:52.584Z,23.27
2023-02-15T16:04:52.558Z,23.26
2023-02-15T16:05:52.537Z,23.26
2023-02-15T16:06:52.545Z,23.25
2023-02-15T16:07:52.517Z,23.24
2023-02-15T16:08:52.520Z,23.24
2023-02-15T16:09:52.530Z,23.23
2023-02-15T16:10:52.515Z,23.22
2023-02-15T16:11:52.510Z,23.22
2023-02-15T16:12:52.487Z,23.21
2023-02-15T16:13:52.467Z,23.20
2023-02-15T16:14:52.454Z,23.19
2023-02-15T16:15:52.462Z,23.19
2023-02-15T16:16:52.452Z,23.18
2023-02-15T16:17:52.426Z,23.17
2023-02-15T16:18:52.404Z,23.16
2023-02-15T16:19:52.388Z,23.16
2023-02-15T16:20:52.380Z,23.15
2023-02-15T16:21:52.380Z,23.14
2023-02-15T16:22:52.505Z,23.14
2023-02-15T16:23:52.327Z,23.13
2023-02-15T16:24:52.328Z,23.12
2023-02-15T16:25:52.297Z,23.12
2023-02-15T16:26:52.289Z,23.11
2023-02-15T16:27:52.288Z,23.10
2023-02-15T16:28:52.279Z,23.09
2023-02-15T16:29:52.298Z,23.08
2023-02-15T16:30:52.257Z,23.08
2023-02-15T16:31:52.281Z,23.07
2023-02-15T16:32:52.237Z,23.07
2023-02-15T16:33:52.238Z,23.06
2023-02-15T16:34:52.241Z,23.06
2023-02-15T16:35:52.207Z,23.04
2023-02-15T16:36:52.196Z,23.04
2023-02-15T16:37:52.187Z,23.03
2023-02-15T16:38:52.168Z,23.03
2023-02-15T16:39:52.163Z,23.02
2023-02-15T16:40:53.511Z,23.01
2023-02-15T16:41:52.136Z,23.00
2023-02-15T16:42:52.122Z,23.00
2023-02-15T16:43:52.120Z,22.99
2023-02-15T16:44:52.094Z,22.99
2023-02-15T16:45:52.075Z,22.98
2023-02-15T16:46:52.124Z,22.98
2023-02-15T16:47:52.078Z,22.98
2023-02-15T16:48:52.042Z,22.96
2023-02-15T16:49:52.035Z,22.96
2023-02-15T16:50:52.026Z,22.96
2023-02-15T16:51:52.010Z,22.95
2023-02-15T16:52:51.997Z,22.94
2023-02-15T16:53:51.998Z,22.93
2023-02-15T16:54:51.983Z,22.93
2023-02-15T16:55:51.988Z,22.93
2023-02-15T16:56:51.971Z,22.93
2023-02-15T16:57:51.972Z,22.92
2023-02-15T16:58:51.953Z,22.91
2023-02-15T16:59:51.959Z,22.91
2023-02-15T17:00:51.996Z,22.90
2023-02-15T17:01:51.940Z,22.89
2023-02-15T17:02:56.424Z,22.89
2023-02-15T17:03:51.994Z,22.88
2023-02-15T17:04:51.930Z,22.88
2023-02-15T17:05:51.955Z,22.88
2023-02-15T17:06:51.940Z,22.86
2023-02-15T17:07:51.942Z,22.86
2023-02-15T17:08:51.932Z,22.85
2023-02-15T17:09:51.930Z,22.85
2023-02-15T17:10:51.921Z,22.85
2023-02-15T17:11:51.941Z,22.83
2023-02-15T17:12:51.934Z,22.83
2023-02-15T17:13:51.908Z,22.83
2023-02-15T17:14:51.898Z,22.83
2023-02-15T17:15:51.923Z,22.82
2023-02-15T17:16:51.896Z,22.81
2023-02-15T17:17:51.913Z,22.81
2023-02-15T17:18:51.886Z,22.81
2023-02-15T17:19:51.885Z,22.80
2023-02-15T17:20:51.883Z,22.80
2023-02-15T17:21:51.874Z,22.80
2023-02-15T17:22:51.893Z,22.79
2023-02-15T17:23:51.883Z,22.78
2023-02-15T17:24:51.851Z,22.78
2023-02-15T17:25:51.842Z,22.77
2023-02-15T17:26:51.828Z,22.77
2023-02-15T17:27:51.825Z,22.76
2023-02-15T17:28:51.884Z,22.75
2023-02-15T17:29:51.792Z,22.75
2023-02-15T17:30:51.786Z,22.74
2023-02-15T17:31:51.920Z,22.74
2023-02-15T17:32:51.765Z,22.74
2023-02-15T17:33:51.767Z,22.73
2023-02-15T17:34:51.759Z,22.74
2023-02-15T17:35:51.787Z,22.72
2023-02-15T17:36:51.758Z,22.71
2023-02-15T17:37:51.775Z,22.71
2023-02-15T17:38:51.748Z,22.71
2023-02-15T17:39:51.756Z,22.70
2023-02-15T17:40:51.754Z,22.70
2023-02-15T17:41:51.734Z,22.70
2023-02-15T17:42:51.765Z,22.69
2023-02-15T17:43:51.722Z,22.70
2023-02-15T17:44:51.712Z,22.68
2023-02-15T17:45:51.759Z,22.67